Bo Tortugo, Puerto Rico
Current Conditions -  °F | °C
As of 10:56 AM on Thursday 23 Oct 2014 (Local Time) from TJSJ Reporting Station
Scattered Clouds Scattered Clouds  
Wind Chill: 88°   Ceiling: Unl
Heat Index: 97°   Visibility: 10mi
Dew Point: 74°   Wind: 7mph
Humidity: 63%   Direction: 70°ENE
Pressure: 29.94"   Gusts: 17mph
Location:  18.3754°N, 66.0577°W
Report Text: TJSJ 231456Z 07006G15KT 10SM FEW040 SCT055 31/23 A2994 RMK AO2 SLP139 60001 T03110233 50002
Loading
Personal Weather Stations






























Interactive Weather Map
Tropical Storm Tracking
New forecast layout! Learn more

10-Day Weather Forecast

Advertisements
Track Severe Weather on mobile